Weather History for Camden, AR

Change the Weather History Date:

Sunday, December 9, 2012

  Actual Average Record
Temperature  
Mean Temperature 66 °F -  
Max Temperature 75 °F 56 °F 80 °F (2007)
Min Temperature 57 °F 33 °F 15 °F (1937)
Cooling Degree Days 1    
Growing Degree Days 16 (Base 50)    
Moisture  
Dew Point 61 °F    
Average Humidity 81    
Maximum Humidity 94    
Minimum Humidity 61    
Precipitation  
Precipitation 0.02 in - - ()
Sea Level Pressure  
Sea Level Pressure 29.83 in    
Wind  
Wind Speed 7 mph (SSW)    
Max Wind Speed 14 mph    
Max Gust Speed 21 mph    
Visibility 9 miles    
Events Rain    
Averages and records for this station are not official NWS values.
T = Trace of Precipitation, MM = Missing Value Source: NWS Daily Summary

Daily Weather History Graph

Daily Weather History Graph

Search for Another Location

Airport:

Trip Planner

Search our weather history database for the weather conditions in past years. The results will help you decide how hot, cold, wet, or windy it might be!

Date:

Astronomy

Dec. 09, 2012 Rise Set
Actual Time 7:04 AM CST 5:03 PM CST
Civil Twilight 6:36 AM CST 5:30 PM CST
Nautical Twilight 6:05 AM CST 6:01 PM CST
Astronomical Twilight 5:35 AM CST 6:31 PM CST
Moon 2:46 AM CST (12/9) 2:02 PM CST (12/9)
Length of Visible Light 10h 53m
Length of Day
9h 58m
Waning Crescent, 18% of the Moon is Illuminated
Dec 9
Waning Crescent
Dec 13
New
Dec 19
First Quarter
Dec 28
Full
Jan 4
Last Quarter

Hourly Weather History & Observations

Time (CST) Temp. Dew Point Humidity Pressure Visibility Wind Dir Wind Speed Gust Speed Precip Events Conditions
12:15 AM 64.4 °F 62.6 °F 94% 29.85 in 7.0 mi South 8.1 mph - N/A   Overcast
12:35 AM 64.4 °F 62.6 °F 94% 29.85 in 8.0 mi South 6.9 mph - N/A   Overcast
12:55 AM 64.4 °F 62.6 °F 94% 29.84 in 9.0 mi South 6.9 mph - N/A   Overcast
1:15 AM 66.2 °F 62.6 °F 88% 29.84 in 10.0 mi South 5.8 mph - N/A   Overcast
1:35 AM 66.2 °F 62.6 °F 88% 29.85 in 9.0 mi South 6.9 mph - N/A   Overcast
1:55 AM 66.2 °F 62.6 °F 88% 29.84 in 10.0 mi South 6.9 mph - N/A   Overcast
2:15 AM 66.2 °F 62.6 °F 88% 29.84 in 10.0 mi South 8.1 mph - N/A   Overcast
2:55 AM 66.2 °F 62.6 °F 88% 29.84 in 10.0 mi South 5.8 mph - N/A   Overcast
3:15 AM 66.2 °F 62.6 °F 88% 29.84 in 10.0 mi South 5.8 mph - N/A   Overcast
3:35 AM 66.2 °F 62.6 °F 88% 29.85 in 10.0 mi South 6.9 mph - N/A   Overcast
3:55 AM 66.2 °F 62.6 °F 88% 29.85 in 10.0 mi South 5.8 mph - N/A   Overcast
4:15 AM 66.2 °F 62.6 °F 88% 29.84 in 10.0 mi South 6.9 mph - N/A   Overcast
4:35 AM 66.2 °F 62.6 °F 88% 29.84 in 10.0 mi South 8.1 mph - N/A   Overcast
4:55 AM 66.2 °F 62.6 °F 88% 29.84 in 10.0 mi South 6.9 mph - N/A   Overcast
5:15 AM 66.2 °F 62.6 °F 88% 29.85 in 10.0 mi South 8.1 mph - N/A   Overcast
5:35 AM 66.2 °F 62.6 °F 88% 29.85 in 10.0 mi South 8.1 mph - N/A   Mostly Cloudy
5:55 AM 66.2 °F 62.6 °F 88% 29.85 in 10.0 mi South 6.9 mph - N/A   Scattered Clouds
6:15 AM 66.2 °F 62.6 °F 88% 29.86 in 10.0 mi South 6.9 mph - N/A   Mostly Cloudy
6:35 AM 66.2 °F 62.6 °F 88% 29.86 in 10.0 mi South 8.1 mph - N/A   Mostly Cloudy
6:55 AM 66.2 °F 62.6 °F 88% 29.87 in 10.0 mi South 9.2 mph - N/A   Mostly Cloudy
7:15 AM 66.2 °F 62.6 °F 88% 29.87 in 10.0 mi South 8.1 mph - N/A   Overcast
7:35 AM 66.2 °F 62.6 °F 88% 29.87 in 9.0 mi South 9.2 mph - N/A   Overcast
7:55 AM 66.2 °F 62.6 °F 88% 29.87 in 10.0 mi South 8.1 mph 16.1 mph N/A   Mostly Cloudy
8:15 AM 66.2 °F 62.6 °F 88% 29.88 in 10.0 mi South 8.1 mph - N/A   Scattered Clouds
8:35 AM 68.0 °F 62.6 °F 83% 29.88 in 10.0 mi South 8.1 mph - N/A   Mostly Cloudy
8:55 AM 68.0 °F 62.6 °F 83% 29.88 in 10.0 mi SSW 10.4 mph - N/A   Mostly Cloudy
9:15 AM 68.0 °F 62.6 °F 83% 29.88 in 10.0 mi South 9.2 mph - N/A   Overcast
9:35 AM 68.0 °F 62.6 °F 83% 29.88 in 10.0 mi South 9.2 mph - N/A   Mostly Cloudy
9:55 AM 68.0 °F 62.6 °F 83% 29.88 in 10.0 mi SSW 11.5 mph - N/A   Mostly Cloudy
10:15 AM 69.8 °F 62.6 °F 78% 29.88 in 10.0 mi SSW 11.5 mph - N/A   Mostly Cloudy
10:35 AM 71.6 °F 62.6 °F 73% 29.88 in 10.0 mi SSW 13.8 mph 20.7 mph N/A   Overcast
10:55 AM 71.6 °F 60.8 °F 69% 29.87 in 10.0 mi SSW 12.7 mph 18.4 mph N/A   Overcast
11:15 AM 71.6 °F 62.6 °F 73% 29.86 in 10.0 mi SSW 9.2 mph 17.3 mph N/A   Overcast
11:35 AM 71.6 °F 60.8 °F 69% 29.85 in 10.0 mi SSW 13.8 mph 17.3 mph N/A   Overcast
12:15 PM 69.8 °F 62.6 °F 78% 29.83 in 8.0 mi South 11.5 mph 18.4 mph N/A   Overcast
12:35 PM 71.6 °F 62.6 °F 73% 29.82 in 10.0 mi SSW 9.2 mph 16.1 mph N/A   Overcast
12:55 PM 71.6 °F 60.8 °F 69% 29.81 in 10.0 mi SSW 9.2 mph - N/A   Overcast
1:15 PM 71.6 °F 60.8 °F 69% 29.80 in 10.0 mi South 11.5 mph 16.1 mph N/A   Mostly Cloudy
1:35 PM 73.4 °F 60.8 °F 65% 29.79 in 10.0 mi South 6.9 mph - N/A   Scattered Clouds
1:55 PM 75.2 °F 60.8 °F 61% 29.79 in 10.0 mi SSW 11.5 mph - N/A   Scattered Clouds
2:15 PM 73.4 °F 60.8 °F 65% 29.79 in 10.0 mi SSW 9.2 mph - N/A   Mostly Cloudy
2:35 PM 75.2 °F 62.6 °F 65% 29.79 in 10.0 mi SW 6.9 mph - N/A   Mostly Cloudy
2:55 PM 75.2 °F 62.6 °F 65% 29.79 in 10.0 mi SSW 9.2 mph 17.3 mph N/A   Mostly Cloudy
3:15 PM 75.2 °F 62.6 °F 65% 29.78 in 10.0 mi SSW 10.4 mph 16.1 mph N/A   Partly Cloudy
3:35 PM 73.4 °F 62.6 °F 69% 29.78 in 10.0 mi South 6.9 mph - N/A   Clear
3:55 PM 73.4 °F 62.6 °F 69% 29.78 in 10.0 mi South 5.8 mph - N/A   Clear
4:15 PM 73.4 °F 62.6 °F 69% 29.78 in 10.0 mi SSW 4.6 mph - N/A   Clear
4:35 PM 71.6 °F 62.6 °F 73% 29.78 in 10.0 mi South 5.8 mph - N/A   Clear
4:55 PM 71.6 °F 62.6 °F 73% 29.78 in 10.0 mi South 3.5 mph - N/A   Clear
5:15 PM 69.8 °F 62.6 °F 78% 29.77 in 10.0 mi South 4.6 mph - N/A   Clear
5:35 PM 69.8 °F 62.6 °F 78% 29.78 in 10.0 mi South 3.5 mph - N/A   Clear
5:55 PM 68.0 °F 62.6 °F 83% 29.78 in 10.0 mi South 4.6 mph - N/A   Partly Cloudy
6:15 PM 68.0 °F 62.6 °F 83% 29.79 in 10.0 mi Calm Calm - N/A   Mostly Cloudy
6:35 PM 68.0 °F 62.6 °F 83% 29.78 in 10.0 mi SSE 3.5 mph - N/A   Scattered Clouds
6:55 PM 68.0 °F 62.6 °F 83% 29.77 in 10.0 mi South 4.6 mph - N/A   Partly Cloudy
7:15 PM 68.0 °F 62.6 °F 83% 29.77 in 10.0 mi Calm Calm - N/A   Clear
7:35 PM 68.0 °F 62.6 °F 83% 29.77 in 10.0 mi Calm Calm - N/A   Mostly Cloudy
7:55 PM 66.2 °F 62.6 °F 88% 29.77 in 10.0 mi Calm Calm - N/A   Mostly Cloudy
8:15 PM 66.2 °F 62.6 °F 88% 29.78 in 10.0 mi WNW 4.6 mph - N/A   Mostly Cloudy
8:35 PM 66.2 °F 62.6 °F 88% 29.79 in 8.0 mi West 5.8 mph - 0.02 in Rain Light Rain
8:55 PM 66.2 °F 62.6 °F 88% 29.80 in 9.0 mi Calm Calm - 0.02 in   Mostly Cloudy
9:15 PM 64.4 °F 62.6 °F 94% 29.81 in 7.0 mi NNW 5.8 mph - N/A   Overcast
9:35 PM 64.4 °F 59.0 °F 83% 29.82 in 7.0 mi North 10.4 mph - N/A   Overcast
9:55 PM 60.8 °F 53.6 °F 77% 29.83 in 6.0 mi North 13.8 mph 18.4 mph N/A   Haze
10:35 PM 59.0 °F 51.8 °F 77% 29.84 in 7.0 mi NNW 9.2 mph - N/A   Overcast
10:55 PM 57.2 °F 50.0 °F 77% 29.84 in 7.0 mi NNW 8.1 mph - N/A Rain Light Rain
11:15 PM 57.2 °F 50.0 °F 77% 29.84 in 7.0 mi NNW 9.2 mph - N/A   Overcast
11:35 PM 57.2 °F 50.0 °F 77% 29.84 in 7.0 mi NNW 8.1 mph - N/A   Overcast
11:55 PM 57.2 °F 50.0 °F 77% 29.84 in 7.0 mi NNW 8.1 mph - N/A   Overcast